Ana Sayfa
METAR-TAF:

METAR-TAF

Havaalanları :

Ardmore Downtown Executive Airport

Ardmore, Oklahoma, Amerika Birleşik Devletleri

Enlem: 34-08-49N, Boylam: 097-07-21W, yükseklik: 257 m

Güncel hava durumu gözlemi

Rapor saat 20:35 UTC de 21 dakika önce yapıldı.
Sakin rüzgar
Sıcaklık 10°C
Nem 29%
Basınç 1028 hPa
Açık gökyüzü

METAR: K1F0 182035Z AUTO 00000KT CLR 10/M07 A3036 RMK AO2 PWINO

Saat: 14:56 (20:56 UTC)


TAF: eksik

4.000'den fazla havaalanı için hava durumu gözlemleri ve tahminleri (METAR ve TAF raporları).

Kullanılabilir istasyonlar harita üzerinde sarı ve kırmızı noktalarla gösterilir.

İstasyonun adını görmek için fareyi noktanın üzerinde gezdirin.

Sonrasında hava gözlem ve tahminlerini görmek için tıklayın.

Haritayı değiştirmek için: yaklaştırmak için siyah artı işaretli yeşil düğmeye ve uzaklaştırmak için de eksi işaretli düğmeye hızla tıklayın; bitişik haritalar için yeşil okları kullanın.


METAR-TAF: